sensor_id;sensor_type;location;lat;lon;timestamp;temperature;humidity
54898;DHT22;40800;52.704;6.398;2022-12-10T00:00:37;-1.60;99.90
54898;DHT22;40800;52.704;6.398;2022-12-10T00:03:04;-1.60;99.90
54898;DHT22;40800;52.704;6.398;2022-12-10T00:05:32;-1.60;99.90
54898;DHT22;40800;52.704;6.398;2022-12-10T00:07:58;-1.90;99.90
54898;DHT22;40800;52.704;6.398;2022-12-10T00:10:23;-1.80;99.90
54898;DHT22;40800;52.704;6.398;2022-12-10T00:12:49;-1.70;99.90
54898;DHT22;40800;52.704;6.398;2022-12-10T00:15:15;-1.90;99.90
54898;DHT22;40800;52.704;6.398;2022-12-10T00:17:41;-1.80;99.90
54898;DHT22;40800;52.704;6.398;2022-12-10T00:20:08;-2.00;99.90
54898;DHT22;40800;52.704;6.398;2022-12-10T00:22:34;-2.00;99.90
54898;DHT22;40800;52.704;6.398;2022-12-10T00:24:59;-2.00;99.90
54898;DHT22;40800;52.704;6.398;2022-12-10T00:27:25;-2.00;99.90
54898;DHT22;40800;52.704;6.398;2022-12-10T00:29:51;-2.00;99.90
54898;DHT22;40800;52.704;6.398;2022-12-10T00:32:16;-1.80;99.90
54898;DHT22;40800;52.704;6.398;2022-12-10T00:34:42;-1.90;99.90
54898;DHT22;40800;52.704;6.398;2022-12-10T00:37:07;-2.10;99.90
54898;DHT22;40800;52.704;6.398;2022-12-10T00:39:33;-1.90;99.90
54898;DHT22;40800;52.704;6.398;2022-12-10T00:41:58;-2.00;99.90
54898;DHT22;40800;52.704;6.398;2022-12-10T00:44:24;-2.10;99.90
54898;DHT22;40800;52.704;6.398;2022-12-10T00:46:50;-2.30;99.90
54898;DHT22;40800;52.704;6.398;2022-12-10T00:49:15;-2.20;99.90
54898;DHT22;40800;52.704;6.398;2022-12-10T00:51:41;-2.00;99.90
54898;DHT22;40800;52.704;6.398;2022-12-10T00:54:07;-2.10;99.90
54898;DHT22;40800;52.704;6.398;2022-12-10T00:56:33;-2.00;99.90
54898;DHT22;40800;52.704;6.398;2022-12-10T00:59:00;-2.20;99.90
54898;DHT22;40800;52.704;6.398;2022-12-10T01:01:28;-2.30;99.90
54898;DHT22;40800;52.704;6.398;2022-12-10T01:03:58;-2.40;99.90
54898;DHT22;40800;52.704;6.398;2022-12-10T01:06:26;-2.20;99.90
54898;DHT22;40800;52.704;6.398;2022-12-10T01:08:55;-2.20;99.90
54898;DHT22;40800;52.704;6.398;2022-12-10T01:11:22;-2.30;99.90
54898;DHT22;40800;52.704;6.398;2022-12-10T01:13:48;-2.20;99.90
54898;DHT22;40800;52.704;6.398;2022-12-10T01:16:16;-2.20;99.90
54898;DHT22;40800;52.704;6.398;2022-12-10T01:18:43;-2.20;99.90
54898;DHT22;40800;52.704;6.398;2022-12-10T01:21:11;-2.30;99.90
54898;DHT22;40800;52.704;6.398;2022-12-10T01:23:40;-2.50;99.90
54898;DHT22;40800;52.704;6.398;2022-12-10T01:26:08;-2.50;99.90
54898;DHT22;40800;52.704;6.398;2022-12-10T01:28:36;-2.40;99.90
54898;DHT22;40800;52.704;6.398;2022-12-10T01:31:07;-2.30;99.90
54898;DHT22;40800;52.704;6.398;2022-12-10T01:33:34;-2.00;99.90
54898;DHT22;40800;52.704;6.398;2022-12-10T01:36:15;-2.20;99.90
54898;DHT22;40800;52.704;6.398;2022-12-10T01:38:41;-2.00;99.90
54898;DHT22;40800;52.704;6.398;2022-12-10T01:41:08;-2.00;99.90
54898;DHT22;40800;52.704;6.398;2022-12-10T01:43:59;-2.10;99.90
54898;DHT22;40800;52.704;6.398;2022-12-10T01:46:30;-2.10;99.90
54898;DHT22;40800;52.704;6.398;2022-12-10T01:48:58;-2.10;99.90
54898;DHT22;40800;52.704;6.398;2022-12-10T01:51:26;-2.10;99.90
54898;DHT22;40800;52.704;6.398;2022-12-10T01:53:52;-2.00;99.90
54898;DHT22;40800;52.704;6.398;2022-12-10T01:56:19;-1.70;99.90
54898;DHT22;40800;52.704;6.398;2022-12-10T01:58:45;-1.70;99.90
54898;DHT22;40800;52.704;6.398;2022-12-10T02:07:00;-1.90;99.90
54898;DHT22;40800;52.704;6.398;2022-12-10T02:09:38;-1.80;99.90
54898;DHT22;40800;52.704;6.398;2022-12-10T02:12:18;-2.00;99.90
54898;DHT22;40800;52.704;6.398;2022-12-10T02:14:57;-2.00;99.90
54898;DHT22;40800;52.704;6.398;2022-12-10T02:17:48;-2.30;99.90
54898;DHT22;40800;52.704;6.398;2022-12-10T02:23:00;-2.40;99.90
54898;DHT22;40800;52.704;6.398;2022-12-10T02:25:49;-2.50;99.90
54898;DHT22;40800;52.704;6.398;2022-12-10T02:28:49;-2.30;99.90
54898;DHT22;40800;52.704;6.398;2022-12-10T02:31:25;-2.40;99.90
54898;DHT22;40800;52.704;6.398;2022-12-10T02:33:58;-2.50;99.90
54898;DHT22;40800;52.704;6.398;2022-12-10T02:36:27;-2.30;99.90
54898;DHT22;40800;52.704;6.398;2022-12-10T02:38:55;-2.50;99.90
54898;DHT22;40800;52.704;6.398;2022-12-10T02:41:29;-2.60;99.90
54898;DHT22;40800;52.704;6.398;2022-12-10T02:43:58;-2.70;99.90
54898;DHT22;40800;52.704;6.398;2022-12-10T02:46:26;-2.60;99.90
54898;DHT22;40800;52.704;6.398;2022-12-10T02:48:54;-2.50;99.90
54898;DHT22;40800;52.704;6.398;2022-12-10T02:51:20;-2.60;99.90
54898;DHT22;40800;52.704;6.398;2022-12-10T02:53:45;-2.40;99.90
54898;DHT22;40800;52.704;6.398;2022-12-10T02:56:23;-2.60;99.90
54898;DHT22;40800;52.704;6.398;2022-12-10T02:59:19;-1.50;99.90
54898;DHT22;40800;52.704;6.398;2022-12-10T03:02:09;-2.40;99.90
54898;DHT22;40800;52.704;6.398;2022-12-10T03:07:13;-2.20;99.90
54898;DHT22;40800;52.704;6.398;2022-12-10T03:09:51;-2.90;99.90
54898;DHT22;40800;52.704;6.398;2022-12-10T03:12:30;-2.90;99.90
54898;DHT22;40800;52.704;6.398;2022-12-10T03:14:59;-2.60;99.90
54898;DHT22;40800;52.704;6.398;2022-12-10T03:17:27;-2.80;99.90
54898;DHT22;40800;52.704;6.398;2022-12-10T03:19:55;-2.70;99.90
54898;DHT22;40800;52.704;6.398;2022-12-10T03:22:20;-2.90;99.90
54898;DHT22;40800;52.704;6.398;2022-12-10T03:24:47;-2.60;99.90
54898;DHT22;40800;52.704;6.398;2022-12-10T03:27:14;-2.80;99.90
54898;DHT22;40800;52.704;6.398;2022-12-10T03:30:07;-2.80;99.90
54898;DHT22;40800;52.704;6.398;2022-12-10T03:32:33;-2.50;99.90
54898;DHT22;40800;52.704;6.398;2022-12-10T03:35:00;-2.50;99.90
54898;DHT22;40800;52.704;6.398;2022-12-10T03:37:27;-2.40;99.90
54898;DHT22;40800;52.704;6.398;2022-12-10T03:39:54;-2.50;99.90
54898;DHT22;40800;52.704;6.398;2022-12-10T03:42:21;-2.50;99.90
54898;DHT22;40800;52.704;6.398;2022-12-10T03:44:49;-2.40;99.90
54898;DHT22;40800;52.704;6.398;2022-12-10T03:47:16;-2.50;99.90
54898;DHT22;40800;52.704;6.398;2022-12-10T03:49:42;-2.40;99.90
54898;DHT22;40800;52.704;6.398;2022-12-10T03:52:09;-2.50;99.90
54898;DHT22;40800;52.704;6.398;2022-12-10T03:54:34;-2.50;99.90
54898;DHT22;40800;52.704;6.398;2022-12-10T03:57:00;-2.80;99.90
54898;DHT22;40800;52.704;6.398;2022-12-10T03:59:25;-2.60;99.90
54898;DHT22;40800;52.704;6.398;2022-12-10T04:01:51;-2.60;99.90
54898;DHT22;40800;52.704;6.398;2022-12-10T04:04:16;-2.60;99.90
54898;DHT22;40800;52.704;6.398;2022-12-10T04:06:42;-2.70;99.90
54898;DHT22;40800;52.704;6.398;2022-12-10T04:09:13;-2.80;99.90
54898;DHT22;40800;52.704;6.398;2022-12-10T04:11:39;-2.80;99.90
54898;DHT22;40800;52.704;6.398;2022-12-10T04:14:04;-2.90;99.90
54898;DHT22;40800;52.704;6.398;2022-12-10T04:16:49;-2.90;99.90
54898;DHT22;40800;52.704;6.398;2022-12-10T04:19:16;-2.90;99.90
54898;DHT22;40800;52.704;6.398;2022-12-10T04:21:43;-2.90;99.90
54898;DHT22;40800;52.704;6.398;2022-12-10T04:24:30;-2.60;99.90
54898;DHT22;40800;52.704;6.398;2022-12-10T04:27:27;-2.70;99.90
54898;DHT22;40800;52.704;6.398;2022-12-10T04:29:54;-2.90;99.90
54898;DHT22;40800;52.704;6.398;2022-12-10T04:32:21;-3.00;99.90
54898;DHT22;40800;52.704;6.398;2022-12-10T04:34:47;-3.00;99.90
54898;DHT22;40800;52.704;6.398;2022-12-10T04:37:13;-3.10;99.90
54898;DHT22;40800;52.704;6.398;2022-12-10T04:39:39;-3.10;99.90
54898;DHT22;40800;52.704;6.398;2022-12-10T04:42:05;-3.10;99.90
54898;DHT22;40800;52.704;6.398;2022-12-10T04:44:31;-2.80;99.90
54898;DHT22;40800;52.704;6.398;2022-12-10T04:46:57;-3.10;99.90
54898;DHT22;40800;52.704;6.398;2022-12-10T04:49:23;-2.90;99.90
54898;DHT22;40800;52.704;6.398;2022-12-10T04:51:49;-3.10;99.90
54898;DHT22;40800;52.704;6.398;2022-12-10T04:54:15;-2.90;99.90
54898;DHT22;40800;52.704;6.398;2022-12-10T04:56:41;-2.80;99.90
54898;DHT22;40800;52.704;6.398;2022-12-10T04:59:07;-3.00;99.90
54898;DHT22;40800;52.704;6.398;2022-12-10T05:01:34;-3.00;99.90
54898;DHT22;40800;52.704;6.398;2022-12-10T05:04:05;-2.70;99.90
54898;DHT22;40800;52.704;6.398;2022-12-10T05:06:31;-3.00;99.90
54898;DHT22;40800;52.704;6.398;2022-12-10T05:08:56;-2.90;99.90
54898;DHT22;40800;52.704;6.398;2022-12-10T05:11:24;-3.10;99.90
54898;DHT22;40800;52.704;6.398;2022-12-10T05:13:51;-3.00;99.90
54898;DHT22;40800;52.704;6.398;2022-12-10T05:16:18;-3.20;99.90
54898;DHT22;40800;52.704;6.398;2022-12-10T05:18:44;-2.90;99.90
54898;DHT22;40800;52.704;6.398;2022-12-10T05:21:12;-2.90;99.90
54898;DHT22;40800;52.704;6.398;2022-12-10T05:23:40;-2.80;99.90
54898;DHT22;40800;52.704;6.398;2022-12-10T05:26:09;-3.30;99.90
54898;DHT22;40800;52.704;6.398;2022-12-10T05:28:38;-3.00;99.90
54898;DHT22;40800;52.704;6.398;2022-12-10T05:31:04;-3.00;99.90
54898;DHT22;40800;52.704;6.398;2022-12-10T05:33:31;-3.10;99.90
54898;DHT22;40800;52.704;6.398;2022-12-10T05:36:03;-3.00;99.90
54898;DHT22;40800;52.704;6.398;2022-12-10T05:38:30;-3.10;99.90
54898;DHT22;40800;52.704;6.398;2022-12-10T05:41:02;-3.30;99.90
54898;DHT22;40800;52.704;6.398;2022-12-10T05:43:28;-3.20;99.90
54898;DHT22;40800;52.704;6.398;2022-12-10T05:45:53;-3.40;99.90
54898;DHT22;40800;52.704;6.398;2022-12-10T05:48:19;-3.20;99.90
54898;DHT22;40800;52.704;6.398;2022-12-10T05:50:44;-3.20;99.90
54898;DHT22;40800;52.704;6.398;2022-12-10T05:53:10;-2.90;99.90
54898;DHT22;40800;52.704;6.398;2022-12-10T05:55:39;-3.10;99.90
54898;DHT22;40800;52.704;6.398;2022-12-10T05:58:04;-2.80;99.90
54898;DHT22;40800;52.704;6.398;2022-12-10T06:00:30;-2.70;99.90
54898;DHT22;40800;52.704;6.398;2022-12-10T06:02:55;-2.70;99.90
54898;DHT22;40800;52.704;6.398;2022-12-10T06:05:21;-2.40;99.90
54898;DHT22;40800;52.704;6.398;2022-12-10T06:07:47;-2.20;99.90
54898;DHT22;40800;52.704;6.398;2022-12-10T06:10:12;-2.10;99.90
54898;DHT22;40800;52.704;6.398;2022-12-10T06:12:38;-2.20;99.90
54898;DHT22;40800;52.704;6.398;2022-12-10T06:15:04;-2.40;99.90
54898;DHT22;40800;52.704;6.398;2022-12-10T06:17:30;-2.40;99.90
54898;DHT22;40800;52.704;6.398;2022-12-10T06:19:56;-2.30;99.90
54898;DHT22;40800;52.704;6.398;2022-12-10T06:22:22;-2.20;99.90
54898;DHT22;40800;52.704;6.398;2022-12-10T06:24:47;-2.50;99.90
54898;DHT22;40800;52.704;6.398;2022-12-10T06:27:13;-2.40;99.90
54898;DHT22;40800;52.704;6.398;2022-12-10T06:29:40;-2.50;99.90
54898;DHT22;40800;52.704;6.398;2022-12-10T06:32:05;-2.40;99.90
54898;DHT22;40800;52.704;6.398;2022-12-10T06:34:31;-2.50;99.90
54898;DHT22;40800;52.704;6.398;2022-12-10T06:36:56;-2.60;99.90
54898;DHT22;40800;52.704;6.398;2022-12-10T06:39:22;-2.50;99.90
54898;DHT22;40800;52.704;6.398;2022-12-10T06:41:47;-2.40;99.90
54898;DHT22;40800;52.704;6.398;2022-12-10T06:44:13;-2.30;99.90
54898;DHT22;40800;52.704;6.398;2022-12-10T06:46:42;-2.60;99.90
54898;DHT22;40800;52.704;6.398;2022-12-10T06:49:08;-2.30;99.90
54898;DHT22;40800;52.704;6.398;2022-12-10T06:51:33;-2.30;99.90
54898;DHT22;40800;52.704;6.398;2022-12-10T06:53:59;-2.50;99.90
54898;DHT22;40800;52.704;6.398;2022-12-10T06:56:25;-2.40;99.90
54898;DHT22;40800;52.704;6.398;2022-12-10T06:58:51;-2.20;99.90
54898;DHT22;40800;52.704;6.398;2022-12-10T07:01:22;-2.30;99.90
54898;DHT22;40800;52.704;6.398;2022-12-10T07:03:56;-2.40;99.90
54898;DHT22;40800;52.704;6.398;2022-12-10T07:06:23;-2.50;99.90
54898;DHT22;40800;52.704;6.398;2022-12-10T07:08:50;-2.20;99.90
54898;DHT22;40800;52.704;6.398;2022-12-10T07:11:19;-2.10;99.90
54898;DHT22;40800;52.704;6.398;2022-12-10T07:13:45;-2.30;99.90
54898;DHT22;40800;52.704;6.398;2022-12-10T07:16:22;-2.30;99.90
54898;DHT22;40800;52.704;6.398;2022-12-10T07:18:49;-2.20;99.90
54898;DHT22;40800;52.704;6.398;2022-12-10T07:21:27;-2.50;99.90
54898;DHT22;40800;52.704;6.398;2022-12-10T07:23:55;-2.40;99.90
54898;DHT22;40800;52.704;6.398;2022-12-10T07:26:23;-2.40;99.90
54898;DHT22;40800;52.704;6.398;2022-12-10T07:28:49;-2.10;99.90
54898;DHT22;40800;52.704;6.398;2022-12-10T07:31:15;-2.40;99.90
54898;DHT22;40800;52.704;6.398;2022-12-10T07:33:40;-2.40;99.90
54898;DHT22;40800;52.704;6.398;2022-12-10T07:36:10;-2.40;99.90
54898;DHT22;40800;52.704;6.398;2022-12-10T07:38:37;-2.10;99.90
54898;DHT22;40800;52.704;6.398;2022-12-10T07:41:11;-2.20;99.90
54898;DHT22;40800;52.704;6.398;2022-12-10T07:43:39;-2.40;99.90
54898;DHT22;40800;52.704;6.398;2022-12-10T07:46:09;-2.10;99.90
54898;DHT22;40800;52.704;6.398;2022-12-10T07:48:36;-2.30;99.90
54898;DHT22;40800;52.704;6.398;2022-12-10T07:51:02;-2.10;99.90
54898;DHT22;40800;52.704;6.398;2022-12-10T07:53:27;-2.30;99.90
54898;DHT22;40800;52.704;6.398;2022-12-10T07:55:53;-2.00;99.90
54898;DHT22;40800;52.704;6.398;2022-12-10T07:58:19;-2.30;99.90
54898;DHT22;40800;52.704;6.398;2022-12-10T08:00:44;-2.00;99.90
54898;DHT22;40800;52.704;6.398;2022-12-10T08:03:10;-2.20;99.90
54898;DHT22;40800;52.704;6.398;2022-12-10T08:05:35;-2.10;99.90
54898;DHT22;40800;52.704;6.398;2022-12-10T08:08:01;-1.90;99.90
54898;DHT22;40800;52.704;6.398;2022-12-10T08:10:27;-2.30;99.90
54898;DHT22;40800;52.704;6.398;2022-12-10T08:12:52;-2.00;99.90
54898;DHT22;40800;52.704;6.398;2022-12-10T08:15:18;-2.00;99.90
54898;DHT22;40800;52.704;6.398;2022-12-10T08:17:43;-2.00;99.90
54898;DHT22;40800;52.704;6.398;2022-12-10T08:20:09;-2.20;99.90
54898;DHT22;40800;52.704;6.398;2022-12-10T08:22:35;-2.20;99.90
54898;DHT22;40800;52.704;6.398;2022-12-10T08:25:01;-2.20;99.90
54898;DHT22;40800;52.704;6.398;2022-12-10T08:27:26;-2.10;99.90
54898;DHT22;40800;52.704;6.398;2022-12-10T08:29:52;-2.10;99.90
54898;DHT22;40800;52.704;6.398;2022-12-10T08:32:18;-1.80;99.90
54898;DHT22;40800;52.704;6.398;2022-12-10T08:34:44;-2.10;99.90
54898;DHT22;40800;52.704;6.398;2022-12-10T08:37:09;-2.00;99.90
54898;DHT22;40800;52.704;6.398;2022-12-10T08:39:35;-1.80;99.90
54898;DHT22;40800;52.704;6.398;2022-12-10T08:42:01;-1.70;99.90
54898;DHT22;40800;52.704;6.398;2022-12-10T08:44:27;-2.00;99.90
54898;DHT22;40800;52.704;6.398;2022-12-10T08:46:52;-1.90;99.90
54898;DHT22;40800;52.704;6.398;2022-12-10T08:49:18;-2.10;99.90
54898;DHT22;40800;52.704;6.398;2022-12-10T08:51:44;-2.00;99.90
54898;DHT22;40800;52.704;6.398;2022-12-10T08:54:09;-1.60;99.90
54898;DHT22;40800;52.704;6.398;2022-12-10T08:56:35;-1.70;99.90
54898;DHT22;40800;52.704;6.398;2022-12-10T08:59:00;-1.70;99.90
54898;DHT22;40800;52.704;6.398;2022-12-10T09:01:26;-1.70;99.90
54898;DHT22;40800;52.704;6.398;2022-12-10T09:03:52;-2.00;99.90
54898;DHT22;40800;52.704;6.398;2022-12-10T09:06:22;-1.70;99.90
54898;DHT22;40800;52.704;6.398;2022-12-10T09:08:49;-1.60;99.90
54898;DHT22;40800;52.704;6.398;2022-12-10T09:11:22;-1.50;99.90
54898;DHT22;40800;52.704;6.398;2022-12-10T09:13:47;-1.50;99.90
54898;DHT22;40800;52.704;6.398;2022-12-10T09:16:13;-1.50;99.90
54898;DHT22;40800;52.704;6.398;2022-12-10T09:18:39;-1.70;99.90
54898;DHT22;40800;52.704;6.398;2022-12-10T09:21:14;-1.60;99.90
54898;DHT22;40800;52.704;6.398;2022-12-10T09:23:40;-1.80;99.90
54898;DHT22;40800;52.704;6.398;2022-12-10T09:26:11;-1.80;99.90
54898;DHT22;40800;52.704;6.398;2022-12-10T09:28:37;-1.40;99.90
54898;DHT22;40800;52.704;6.398;2022-12-10T09:31:04;-1.80;99.90
54898;DHT22;40800;52.704;6.398;2022-12-10T09:33:31;-1.40;99.90
54898;DHT22;40800;52.704;6.398;2022-12-10T09:35:56;-1.60;99.90
54898;DHT22;40800;52.704;6.398;2022-12-10T09:38:22;-1.50;99.90
54898;DHT22;40800;52.704;6.398;2022-12-10T09:41:01;-1.30;99.90
54898;DHT22;40800;52.704;6.398;2022-12-10T09:43:45;-1.40;99.90
54898;DHT22;40800;52.704;6.398;2022-12-10T09:46:23;-1.60;99.90
54898;DHT22;40800;52.704;6.398;2022-12-10T09:49:08;-1.50;99.90
54898;DHT22;40800;52.704;6.398;2022-12-10T09:51:37;-1.70;99.90
54898;DHT22;40800;52.704;6.398;2022-12-10T09:54:22;-1.40;99.90
54898;DHT22;40800;52.704;6.398;2022-12-10T09:56:50;-1.60;99.90
54898;DHT22;40800;52.704;6.398;2022-12-10T09:59:24;-1.30;99.90
54898;DHT22;40800;52.704;6.398;2022-12-10T10:02:16;-1.20;99.90
54898;DHT22;40800;52.704;6.398;2022-12-10T10:04:45;-1.60;99.90
54898;DHT22;40800;52.704;6.398;2022-12-10T10:07:28;-1.60;99.90
54898;DHT22;40800;52.704;6.398;2022-12-10T10:10:02;-1.50;99.90
54898;DHT22;40800;52.704;6.398;2022-12-10T10:12:31;-1.10;99.90
54898;DHT22;40800;52.704;6.398;2022-12-10T10:14:57;-1.10;99.90
54898;DHT22;40800;52.704;6.398;2022-12-10T10:17:34;-1.10;99.90
54898;DHT22;40800;52.704;6.398;2022-12-10T10:20:01;-1.10;99.90
54898;DHT22;40800;52.704;6.398;2022-12-10T10:22:27;-1.20;99.90
54898;DHT22;40800;52.704;6.398;2022-12-10T10:24:53;-1.50;99.90
54898;DHT22;40800;52.704;6.398;2022-12-10T10:27:22;-1.20;99.90
54898;DHT22;40800;52.704;6.398;2022-12-10T10:29:51;-1.20;99.90
54898;DHT22;40800;52.704;6.398;2022-12-10T10:32:20;-1.50;99.90
54898;DHT22;40800;52.704;6.398;2022-12-10T10:34:55;-1.20;99.90
54898;DHT22;40800;52.704;6.398;2022-12-10T10:37:25;-1.10;99.90
54898;DHT22;40800;52.704;6.398;2022-12-10T10:39:52;-1.20;99.90
54898;DHT22;40800;52.704;6.398;2022-12-10T10:42:41;-1.10;99.90
54898;DHT22;40800;52.704;6.398;2022-12-10T10:48:18;-1.50;99.90
54898;DHT22;40800;52.704;6.398;2022-12-10T10:50:50;-1.50;99.90
54898;DHT22;40800;52.704;6.398;2022-12-10T10:55:47;-1.10;99.90
54898;DHT22;40800;52.704;6.398;2022-12-10T10:58:20;-1.20;99.90
54898;DHT22;40800;52.704;6.398;2022-12-10T11:01:01;-1.10;99.90
54898;DHT22;40800;52.704;6.398;2022-12-10T11:03:29;-1.40;99.90
54898;DHT22;40800;52.704;6.398;2022-12-10T11:05:56;-1.20;99.90
54898;DHT22;40800;52.704;6.398;2022-12-10T11:08:25;-1.30;99.90
54898;DHT22;40800;52.704;6.398;2022-12-10T11:10:54;-1.30;99.90
54898;DHT22;40800;52.704;6.398;2022-12-10T11:13:29;-1.30;99.90
54898;DHT22;40800;52.704;6.398;2022-12-10T11:16:09;-1.20;99.90
54898;DHT22;40800;52.704;6.398;2022-12-10T11:18:38;-1.00;99.90
54898;DHT22;40800;52.704;6.398;2022-12-10T11:23:44;-1.20;99.90
54898;DHT22;40800;52.704;6.398;2022-12-10T11:31:48;-0.80;99.90
54898;DHT22;40800;52.704;6.398;2022-12-10T11:36:59;-1.10;99.90
54898;DHT22;40800;52.704;6.398;2022-12-10T11:45:24;-1.00;99.90
54898;DHT22;40800;52.704;6.398;2022-12-10T11:51:02;-0.80;99.90
54898;DHT22;40800;52.704;6.398;2022-12-10T11:56:44;-0.70;99.90
54898;DHT22;40800;52.704;6.398;2022-12-10T12:15:44;-0.70;99.90
54898;DHT22;40800;52.704;6.398;2022-12-10T12:18:35;-1.00;99.90
54898;DHT22;40800;52.704;6.398;2022-12-10T12:21:04;-0.50;99.90
54898;DHT22;40800;52.704;6.398;2022-12-10T12:24:00;-0.50;99.90
54898;DHT22;40800;52.704;6.398;2022-12-10T12:26:39;-0.80;99.90
54898;DHT22;40800;52.704;6.398;2022-12-10T12:29:29;-0.80;99.90
54898;DHT22;40800;52.704;6.398;2022-12-10T12:32:25;-0.80;99.90
54898;DHT22;40800;52.704;6.398;2022-12-10T12:35:02;-0.80;99.90
54898;DHT22;40800;52.704;6.398;2022-12-10T12:37:46;-0.80;99.90
54898;DHT22;40800;52.704;6.398;2022-12-10T12:45:28;-0.40;99.90
54898;DHT22;40800;52.704;6.398;2022-12-10T12:50:47;-0.60;99.90
54898;DHT22;40800;52.704;6.398;2022-12-10T12:53:17;-0.70;99.90
54898;DHT22;40800;52.704;6.398;2022-12-10T12:56:09;-0.30;99.90
54898;DHT22;40800;52.704;6.398;2022-12-10T12:59:04;-0.40;99.90
54898;DHT22;40800;52.704;6.398;2022-12-10T13:01:56;-0.50;99.90
54898;DHT22;40800;52.704;6.398;2022-12-10T13:04:24;-0.10;99.90
54898;DHT22;40800;52.704;6.398;2022-12-10T13:07:09;-0.20;99.90
54898;DHT22;40800;52.704;6.398;2022-12-10T13:13:23;-0.20;99.90
54898;DHT22;40800;52.704;6.398;2022-12-10T13:15:49;-0.40;99.90
54898;DHT22;40800;52.704;6.398;2022-12-10T13:21:16;-0.40;99.90
54898;DHT22;40800;52.704;6.398;2022-12-10T13:23:53;-0.50;99.90
54898;DHT22;40800;52.704;6.398;2022-12-10T13:26:27;-0.10;99.90
54898;DHT22;40800;52.704;6.398;2022-12-10T13:28:54;-0.20;99.90
54898;DHT22;40800;52.704;6.398;2022-12-10T13:31:40;-0.30;99.90
54898;DHT22;40800;52.704;6.398;2022-12-10T13:34:22;-0.20;99.90
54898;DHT22;40800;52.704;6.398;2022-12-10T13:39:21;-0.10;99.90
54898;DHT22;40800;52.704;6.398;2022-12-10T13:45:23;-0.50;99.90
54898;DHT22;40800;52.704;6.398;2022-12-10T13:48:15;-0.10;99.90
54898;DHT22;40800;52.704;6.398;2022-12-10T13:51:09;-0.50;99.90
54898;DHT22;40800;52.704;6.398;2022-12-10T13:58:55;-0.60;99.90
54898;DHT22;40800;52.704;6.398;2022-12-10T14:01:48;-0.50;99.90
54898;DHT22;40800;52.704;6.398;2022-12-10T14:04:21;-0.20;99.90
54898;DHT22;40800;52.704;6.398;2022-12-10T14:06:52;-0.20;99.90
54898;DHT22;40800;52.704;6.398;2022-12-10T14:09:27;-0.60;99.90
54898;DHT22;40800;52.704;6.398;2022-12-10T14:12:16;-0.30;99.90
54898;DHT22;40800;52.704;6.398;2022-12-10T14:15:04;-0.60;99.90
54898;DHT22;40800;52.704;6.398;2022-12-10T14:17:38;-0.60;99.90
54898;DHT22;40800;52.704;6.398;2022-12-10T14:20:06;-0.70;99.90
54898;DHT22;40800;52.704;6.398;2022-12-10T14:22:47;-0.70;99.90
54898;DHT22;40800;52.704;6.398;2022-12-10T14:25:19;-0.70;99.90
54898;DHT22;40800;52.704;6.398;2022-12-10T14:27:52;-0.50;99.90
54898;DHT22;40800;52.704;6.398;2022-12-10T14:30:20;-0.60;99.90
54898;DHT22;40800;52.704;6.398;2022-12-10T14:32:46;-0.50;99.90
54898;DHT22;40800;52.704;6.398;2022-12-10T14:35:20;-0.30;99.90
54898;DHT22;40800;52.704;6.398;2022-12-10T14:37:47;-0.80;99.90
54898;DHT22;40800;52.704;6.398;2022-12-10T14:40:20;-0.30;99.90
54898;DHT22;40800;52.704;6.398;2022-12-10T14:42:47;-0.40;99.90
54898;DHT22;40800;52.704;6.398;2022-12-10T14:45:14;-0.70;99.90
54898;DHT22;40800;52.704;6.398;2022-12-10T14:47:40;-0.70;99.90
54898;DHT22;40800;52.704;6.398;2022-12-10T14:50:11;-0.40;99.90
54898;DHT22;40800;52.704;6.398;2022-12-10T14:52:43;-0.60;99.90
54898;DHT22;40800;52.704;6.398;2022-12-10T14:55:13;-0.70;99.90
54898;DHT22;40800;52.704;6.398;2022-12-10T14:57:43;0.40;99.90
54898;DHT22;40800;52.704;6.398;2022-12-10T15:00:13;-0.30;99.90
54898;DHT22;40800;52.704;6.398;2022-12-10T15:02:42;-0.30;99.90
54898;DHT22;40800;52.704;6.398;2022-12-10T15:05:23;-0.70;99.90
54898;DHT22;40800;52.704;6.398;2022-12-10T15:12:55;-0.50;99.90
54898;DHT22;40800;52.704;6.398;2022-12-10T15:20:36;-0.50;99.90
54898;DHT22;40800;52.704;6.398;2022-12-10T15:25:51;-0.40;99.90
54898;DHT22;40800;52.704;6.398;2022-12-10T15:28:30;-0.70;99.90
54898;DHT22;40800;52.704;6.398;2022-12-10T15:31:08;-0.30;99.90
54898;DHT22;40800;52.704;6.398;2022-12-10T15:33:44;-0.50;99.90
54898;DHT22;40800;52.704;6.398;2022-12-10T15:36:19;-0.40;99.90
54898;DHT22;40800;52.704;6.398;2022-12-10T15:38:46;-0.70;99.90
54898;DHT22;40800;52.704;6.398;2022-12-10T15:44:04;-0.10;99.90
54898;DHT22;40800;52.704;6.398;2022-12-10T15:46:30;-0.70;99.90
54898;DHT22;40800;52.704;6.398;2022-12-10T15:48:56;-0.40;99.90
54898;DHT22;40800;52.704;6.398;2022-12-10T15:51:22;-0.70;99.90
54898;DHT22;40800;52.704;6.398;2022-12-10T15:53:47;-0.60;99.90
54898;DHT22;40800;52.704;6.398;2022-12-10T15:56:13;-0.30;99.90
54898;DHT22;40800;52.704;6.398;2022-12-10T15:58:39;-0.80;99.90
54898;DHT22;40800;52.704;6.398;2022-12-10T16:01:06;-0.40;99.90
54898;DHT22;40800;52.704;6.398;2022-12-10T16:03:33;-0.40;99.90
54898;DHT22;40800;52.704;6.398;2022-12-10T16:05:59;-0.70;99.90
54898;DHT22;40800;52.704;6.398;2022-12-10T16:08:26;-0.70;99.90
54898;DHT22;40800;52.704;6.398;2022-12-10T16:10:55;-0.40;99.90
54898;DHT22;40800;52.704;6.398;2022-12-10T16:13:25;-0.40;99.90
54898;DHT22;40800;52.704;6.398;2022-12-10T16:15:57;-0.50;99.90
54898;DHT22;40800;52.704;6.398;2022-12-10T16:18:23;-0.20;99.90
54898;DHT22;40800;52.704;6.398;2022-12-10T16:20:49;-0.30;99.90
54898;DHT22;40800;52.704;6.398;2022-12-10T16:23:15;-0.30;99.90
54898;DHT22;40800;52.704;6.398;2022-12-10T16:25:42;-0.70;99.90
54898;DHT22;40800;52.704;6.398;2022-12-10T16:28:18;-0.30;99.90
54898;DHT22;40800;52.704;6.398;2022-12-10T16:30:48;-0.70;99.90
54898;DHT22;40800;52.704;6.398;2022-12-10T16:33:15;-0.60;99.90
54898;DHT22;40800;52.704;6.398;2022-12-10T16:35:45;-0.50;99.90
54898;DHT22;40800;52.704;6.398;2022-12-10T16:38:10;-0.50;99.90
54898;DHT22;40800;52.704;6.398;2022-12-10T16:40:38;-0.40;99.90
54898;DHT22;40800;52.704;6.398;2022-12-10T16:43:04;-0.90;99.90
54898;DHT22;40800;52.704;6.398;2022-12-10T16:45:35;-0.80;99.90
54898;DHT22;40800;52.704;6.398;2022-12-10T16:48:02;-0.40;99.90
54898;DHT22;40800;52.704;6.398;2022-12-10T16:50:28;-0.40;99.90
54898;DHT22;40800;52.704;6.398;2022-12-10T16:52:55;-0.90;99.90
54898;DHT22;40800;52.704;6.398;2022-12-10T16:55:23;-0.60;99.90
54898;DHT22;40800;52.704;6.398;2022-12-10T16:57:49;-0.50;99.90
54898;DHT22;40800;52.704;6.398;2022-12-10T17:00:17;-0.50;99.90
54898;DHT22;40800;52.704;6.398;2022-12-10T17:02:45;-0.70;99.90
54898;DHT22;40800;52.704;6.398;2022-12-10T17:05:26;-0.50;99.90
54898;DHT22;40800;52.704;6.398;2022-12-10T17:07:52;-0.90;99.90
54898;DHT22;40800;52.704;6.398;2022-12-10T17:10:18;-0.60;99.90
54898;DHT22;40800;52.704;6.398;2022-12-10T17:13:04;-0.60;99.90
54898;DHT22;40800;52.704;6.398;2022-12-10T17:15:29;-0.70;99.90
54898;DHT22;40800;52.704;6.398;2022-12-10T17:17:55;-0.90;99.90
54898;DHT22;40800;52.704;6.398;2022-12-10T17:20:20;-0.70;99.90
54898;DHT22;40800;52.704;6.398;2022-12-10T17:22:46;-1.10;99.90
54898;DHT22;40800;52.704;6.398;2022-12-10T17:25:12;-0.80;99.90